»·PEaware :: N302VM KSMO-KSBA

N302VM :: KSMO-KSBA

FLIGHT INFORMATION

Flight Status: Arrived
Operator: Privately registered:
United States
More flights under this callsign
Pilot: Adjua A. (12352)
Aircraft: PIPER PA-44 SEMINOLE
(PA44)
More flights by this aircraft type
Origin: KSMO Santa Monica Mun
United States
Destination: KSBA Santa Barbara Mun
United States
More flights between these airports :: More routes between these airports
Route: +SMO V107 SADDE V299 VTU VTU R282 KWANG
File this flight plan on PilotEdge
Remarks: TEC route SMOP38
Altitude:
(Current/Filed)
6,000ft
Speed:
(Current/Filed)
140kts
Departed: 22-Jul-20 11:41 AM
Arrived: 22-Jul-20 12:28 PM
Distance/Time
Traveled:
73nm/0:47
Distance/Time
To Go:
Arrived

Flight Plot

Page will automatically refresh every two minutes.


Map Options




Map Legend


Flown Route
Filed Route
Departure Airport
Arrival Airport
Navaid (VOR, NDB)
Fix

Horizontal Profiles

Position Reports

Time Latitude Longitude Heading Altitude Ground
Speed
22-Jul-20 11:19 34.020248 -118.447543 314 178ft 0kts
22-Jul-20 11:20 34.020248 -118.447543 314 178ft 0kts
22-Jul-20 11:21 34.020248 -118.447543 314 178ft 0kts
22-Jul-20 11:22 34.020248 -118.447543 314 178ft 0kts
22-Jul-20 11:23 34.020248 -118.447544 314 178ft 0kts
22-Jul-20 11:24 34.020250 -118.447546 314 178ft 0kts
22-Jul-20 11:25 34.020252 -118.447548 314 178ft 0kts
22-Jul-20 11:26 34.020254 -118.447550 314 178ft 0kts
22-Jul-20 11:28 34.020255 -118.447552 314 178ft 0kts
22-Jul-20 11:29 34.020257 -118.447554 314 178ft 0kts
22-Jul-20 11:30 34.020259 -118.447556 314 178ft 0kts
22-Jul-20 11:31 34.020260 -118.447558 314 178ft 0kts
22-Jul-20 11:32 34.020262 -118.447561 314 178ft 0kts
22-Jul-20 11:33 34.020264 -118.447563 314 178ft 0kts
22-Jul-20 11:34 34.020266 -118.447565 314 178ft 0kts
22-Jul-20 11:35 34.020268 -118.447567 314 178ft 0kts
22-Jul-20 11:36 34.020437 -118.447422 112 178ft 0kts
22-Jul-20 11:37 34.020437 -118.447420 112 178ft 0kts
22-Jul-20 11:38 34.020604 -118.446806 44 178ft 5kts
22-Jul-20 11:39 34.020982 -118.446266 71 178ft 0kts
22-Jul-20 11:40 34.020547 -118.445747 209 178ft 4kts
22-Jul-20 11:41 34.011228 -118.456818 225 534ft 93kts
22-Jul-20 11:42 33.994919 -118.484037 266 1352ft 105kts
22-Jul-20 11:43 33.993179 -118.520586 267 2167ft 110kts
22-Jul-20 11:43 33.989515 -118.551541 261 2830ft 113kts
22-Jul-20 11:45 33.985483 -118.600591 271 3408ft 126kts
22-Jul-20 11:46 33.995929 -118.638304 293 4282ft 115kts
22-Jul-20 11:46 34.005856 -118.668328 294 4995ft 117kts
22-Jul-20 11:47 34.015753 -118.705681 288 5840ft 118kts
22-Jul-20 11:49 34.031344 -118.755089 294 6004ft 151kts
22-Jul-20 11:49 34.042744 -118.795612 288 6042ft 153kts
22-Jul-20 11:50 34.057546 -118.844399 292 6040ft 156kts
22-Jul-20 11:51 34.071324 -118.894785 291 5984ft 156kts
22-Jul-20 11:52 34.085472 -118.944450 291 6015ft 153kts
22-Jul-20 11:53 34.098508 -118.994160 288 5992ft 155kts
22-Jul-20 11:54 34.113362 -119.042808 294 6003ft 155kts
22-Jul-20 11:55 34.130960 -119.090658 297 5980ft 157kts
22-Jul-20 11:56 34.151473 -119.136182 299 6037ft 154kts
22-Jul-20 11:57 34.172353 -119.181396 301 6052ft 153kts
22-Jul-20 11:58 34.191622 -119.227786 300 6030ft 155kts
22-Jul-20 11:59 34.209874 -119.274859 296 6023ft 156kts
22-Jul-20 12:00 34.229319 -119.321948 301 5991ft 155kts
22-Jul-20 12:01 34.249799 -119.368090 299 5726ft 157kts
22-Jul-20 12:02 34.269051 -119.415840 299 5044ft 158kts
22-Jul-20 12:03 34.288025 -119.463459 298 4422ft 155kts
22-Jul-20 12:04 34.308050 -119.510360 295 4030ft 153kts
22-Jul-20 12:05 34.321319 -119.557503 274 4039ft 151kts
22-Jul-20 12:06 34.320348 -119.608487 273 4008ft 151kts
22-Jul-20 12:07 34.317787 -119.659023 271 4022ft 146kts
22-Jul-20 12:08 34.315237 -119.707356 270 4008ft 140kts
22-Jul-20 12:09 34.315147 -119.754404 270 4009ft 136kts
22-Jul-20 12:10 34.313946 -119.800921 270 3968ft 138kts
22-Jul-20 12:11 34.313635 -119.847087 275 4028ft 137kts
22-Jul-20 12:12 34.311127 -119.893824 262 4125ft 135kts
22-Jul-20 12:13 34.307319 -119.941199 265 3942ft 141kts
22-Jul-20 12:14 34.311942 -119.988826 270 3975ft 145kts
22-Jul-20 12:15 34.310807 -120.038909 265 4055ft 154kts
22-Jul-20 12:16 34.310193 -120.091123 271 3656ft 157kts
22-Jul-20 12:17 34.308050 -120.139089 269 3497ft 132kts
22-Jul-20 12:18 34.336090 -120.148972 1 3465ft 121kts
22-Jul-20 12:19 34.369833 -120.145459 4 3540ft 122kts
22-Jul-20 12:20 34.402925 -120.137502 58 3473ft 133kts
22-Jul-20 12:21 34.417842 -120.096841 63 3472ft 130kts
22-Jul-20 12:22 34.423060 -120.052030 83 3187ft 144kts
22-Jul-20 12:23 34.426084 -120.002611 93 2570ft 153kts
22-Jul-20 12:24 34.424013 -119.949895 80 1482ft 152kts
22-Jul-20 12:25 34.425820 -119.907570 81 920ft 109kts
22-Jul-20 12:26 34.427238 -119.872651 88 377ft 104kts
22-Jul-20 12:27 34.427767 -119.844490 87 13ft 15kts

Navigation Log

Ident Type
Flight plan parsing failed, navigation log unavailable